Time;durP1;ratioP1;P1;durP2;ratioP2;P2;SDS_P1;SDS_P2;PMS_P1;PMS_P2;Temp;Humidity;BMP_temperature;BMP_pressure;BME280_temperature;BME280_humidity;BME280_pressure;Samples;Min_cycle;Max_cycle;Signal;HPM_P1;HPM_P2
2022/04/01 00:00:12;;;;;;;24.00;9.60;;;358.80;2329.60;;;;;;5017308;28;20028;-78
2022/04/01 00:02:38;;;;;;;27.70;11.10;;;358.70;2329.60;;;;;;5016115;28;20105;-78
2022/04/01 00:05:06;;;;;;;32.80;10.85;;;358.70;2329.60;;;;;;5016129;28;20072;-78
2022/04/01 00:07:33;;;;;;;28.08;10.20;;;358.70;2329.60;;;;;;5016213;28;20100;-78
2022/04/01 00:09:59;;;;;;;27.58;11.07;;;358.70;2329.60;;;;;;5015788;28;20466;-78
2022/04/01 00:12:25;;;;;;;23.88;10.20;;;358.70;2329.60;;;;;;5015762;28;20029;-78
2022/04/01 00:14:50;;;;;;;25.80;9.18;;;358.70;2329.60;;;;;;5015991;28;20083;-78
2022/04/01 00:17:16;;;;;;;29.55;9.77;;;358.70;2329.60;;;;;;5016920;28;20041;-78
2022/04/01 00:19:42;;;;;;;27.65;9.48;;;358.70;2329.60;;;;;;5015898;28;20080;-79
2022/04/01 00:22:07;;;;;;;25.02;9.40;;;358.70;2329.60;;;;;;5015730;28;20037;-78
2022/04/01 00:24:33;;;;;;;25.98;9.73;;;358.70;2329.60;;;;;;5015503;28;20389;-78
2022/04/01 00:26:59;;;;;;;36.22;9.55;;;358.80;2329.60;;;;;;5015636;28;20037;-77
2022/04/01 00:29:26;;;;;;;27.27;9.48;;;358.80;2329.60;;;;;;5015770;28;20101;-78
2022/04/01 00:31:58;;;;;;;26.98;9.38;;;358.80;2329.60;;;;;;5016681;28;20108;-77
2022/04/01 00:34:33;;;;;;;23.77;8.30;;;358.80;2329.60;;;;;;5016790;28;20029;-76
2022/04/01 00:37:01;;;;;;;22.95;7.70;;;358.80;2329.60;;;;;;5016599;28;20113;-77
2022/04/01 00:39:30;;;;;;;28.90;8.27;;;358.80;2329.60;;;;;;5015358;28;20105;-80
2022/04/01 00:41:57;;;;;;;21.00;8.75;;;358.80;2329.60;;;;;;5015908;28;20033;-77
2022/04/01 00:44:24;;;;;;;29.38;8.13;;;358.80;2329.60;;;;;;5016415;28;20028;-78
2022/04/01 00:46:52;;;;;;;31.75;9.10;;;358.70;2329.60;;;;;;5015251;28;20481;-78
2022/04/01 00:49:20;;;;;;;24.85;8.98;;;358.70;2329.60;;;;;;5015255;28;20466;-78
2022/04/01 00:51:49;;;;;;;23.95;8.15;;;358.70;2329.60;;;;;;5015143;28;20437;-78
2022/04/01 00:54:16;;;;;;;22.13;7.57;;;358.70;2329.60;;;;;;5015127;28;20140;-77
2022/04/01 00:56:42;;;;;;;20.02;7.65;;;358.70;2329.60;;;;;;5015001;28;20042;-78
2022/04/01 00:59:08;;;;;;;21.20;9.23;;;358.70;2329.60;;;;;;5016285;28;20022;-77
2022/04/01 01:01:36;;;;;;;29.23;9.02;;;358.70;2329.60;;;;;;5015098;28;20485;-78
2022/04/01 01:04:07;;;;;;;27.08;8.80;;;358.70;2329.60;;;;;;5014842;28;20048;-77
2022/04/01 01:06:37;;;;;;;20.38;8.20;;;358.60;2329.60;;;;;;5016063;28;20440;-78
2022/04/01 01:09:04;;;;;;;23.08;8.10;;;358.70;2329.60;;;;;;5016126;28;20359;-78
2022/04/01 01:11:35;;;;;;;27.88;8.88;;;358.70;2329.60;;;;;;5014623;28;20029;-78
2022/04/01 01:14:05;;;;;;;19.50;7.57;;;358.70;2329.60;;;;;;5014815;28;20486;-78
2022/04/01 01:16:31;;;;;;;21.23;7.65;;;358.60;2329.60;;;;;;5014959;28;20034;-78
2022/04/01 01:19:08;;;;;;;19.40;8.13;;;358.50;2329.60;;;;;;5015817;28;20029;-78
2022/04/01 01:21:34;;;;;;;23.30;7.95;;;358.60;2329.60;;;;;;5014629;28;20033;-77
2022/04/01 01:24:06;;;;;;;16.63;6.55;;;358.60;2329.60;;;;;;5014565;28;20037;-77
2022/04/01 01:26:33;;;;;;;23.75;8.30;;;358.50;2329.60;;;;;;5014808;28;20095;-77
2022/04/01 01:28:59;;;;;;;18.83;7.35;;;358.50;2329.60;;;;;;5014435;28;20025;-78
2022/04/01 01:31:25;;;;;;;23.65;7.38;;;358.60;2329.60;;;;;;5014534;28;20389;-79
2022/04/01 01:33:56;;;;;;;22.27;8.98;;;358.50;2329.60;;;;;;5014403;28;20090;-78
2022/04/01 01:36:23;;;;;;;18.95;8.38;;;358.60;2329.60;;;;;;5014580;28;20082;-78
2022/04/01 01:38:49;;;;;;;25.42;7.65;;;358.50;2329.60;;;;;;5015484;28;20144;-78
2022/04/01 01:41:15;;;;;;;18.45;6.75;;;358.50;2329.60;;;;;;5014388;28;20048;-78
2022/04/01 01:43:41;;;;;;;25.08;8.75;;;358.50;2329.60;;;;;;5014273;28;20471;-84
2022/04/01 01:46:10;;;;;;;17.83;6.70;;;358.60;2329.60;;;;;;4997904;28;20034;-78
2022/04/01 01:48:37;;;;;;;20.67;8.13;;;358.60;2329.60;;;;;;5014306;28;20022;-77
2022/04/01 01:56:31;;;;;;;16.52;6.88;;;358.50;2329.60;;;;;;5015076;28;20396;-78
2022/04/01 01:58:57;;;;;;;20.08;8.02;;;358.50;2329.60;;;;;;5013788;28;20022;-77
2022/04/01 02:01:23;;;;;;;19.65;7.32;;;358.50;2329.60;;;;;;5013947;28;20076;-77
2022/04/01 02:03:49;;;;;;;25.52;6.85;;;358.50;2329.60;;;;;;5013946;28;20425;-83
2022/04/01 02:06:15;;;;;;;23.80;7.05;;;358.50;2329.60;;;;;;5014876;28;20524;-78
2022/04/01 02:08:41;;;;;;;21.80;6.90;;;358.50;2329.60;;;;;;5013782;28;20034;-78
2022/04/01 02:11:08;;;;;;;23.27;8.50;;;358.50;2329.60;;;;;;5013843;28;20124;-77
2022/04/01 02:13:34;;;;;;;21.00;7.30;;;358.60;2329.60;;;;;;5014788;28;20092;-77
2022/04/01 02:16:00;;;;;;;14.88;6.90;;;358.60;2329.60;;;;;;5013463;28;20076;-78
2022/04/01 02:18:26;;;;;;;23.00;6.30;;;358.50;2329.60;;;;;;5013833;28;20038;-78
2022/04/01 02:20:52;;;;;;;23.17;6.18;;;358.80;2329.60;;;;;;5013496;28;20034;-77
2022/04/01 02:23:18;;;;;;;18.45;6.43;;;358.80;2329.60;;;;;;5013467;28;20065;-78
2022/04/01 02:25:44;;;;;;;13.38;5.80;;;358.80;2329.60;;;;;;5013280;28;20108;-78
2022/04/01 02:28:13;;;;;;;18.02;6.10;;;358.80;2329.60;;;;;;5014612;28;20072;-78
2022/04/01 02:30:39;;;;;;;22.20;6.88;;;358.80;2329.60;;;;;;5013440;28;20050;-77
2022/04/01 02:33:08;;;;;;;22.08;5.63;;;358.80;2329.60;;;;;;5014498;28;20026;-77
2022/04/01 02:35:34;;;;;;;20.58;6.53;;;358.80;2329.60;;;;;;5013231;28;20030;-78
2022/04/01 02:38:00;;;;;;;17.95;6.97;;;358.80;2329.60;;;;;;5014429;28;20026;-81
2022/04/01 02:40:25;;;;;;;19.98;7.40;;;358.80;2329.60;;;;;;5013272;28;20021;-78
2022/04/01 02:42:53;;;;;;;15.30;6.82;;;358.80;2329.60;;;;;;5014183;28;20512;-79
2022/04/01 02:45:22;;;;;;;17.45;7.65;;;358.80;2329.60;;;;;;5014286;28;20489;-78
2022/04/01 02:47:48;;;;;;;18.83;8.32;;;358.80;2329.60;;;;;;5014889;28;20030;-84
2022/04/01 02:50:13;;;;;;;22.83;6.30;;;358.80;2329.60;;;;;;5013167;28;20465;-78
2022/04/01 02:52:39;;;;;;;21.20;7.97;;;358.70;2329.60;;;;;;5012904;28;20040;-79
2022/04/01 02:55:06;;;;;;;18.80;7.72;;;358.70;2329.60;;;;;;5012732;28;20050;-79
2022/04/01 02:57:33;;;;;;;20.88;8.35;;;358.60;2329.60;;;;;;5013933;28;20037;-78
2022/04/01 02:59:59;;;;;;;21.05;7.90;;;358.70;2329.60;;;;;;5014226;28;20496;-78
2022/04/01 03:02:25;;;;;;;23.77;8.27;;;358.60;2329.60;;;;;;5012888;28;20025;-78
2022/04/01 03:04:51;;;;;;;24.48;8.23;;;358.60;2329.60;;;;;;5012508;28;20034;-78
2022/04/01 03:07:16;;;;;;;21.38;8.35;;;358.60;2329.60;;;;;;5014109;28;20026;-78
2022/04/01 03:09:42;;;;;;;22.75;7.47;;;358.60;2329.60;;;;;;5012907;28;20026;-78
2022/04/01 03:12:08;;;;;;;21.17;7.15;;;358.70;2329.60;;;;;;5012444;28;20034;-78
2022/04/01 03:14:34;;;;;;;19.88;7.43;;;358.70;2329.60;;;;;;5013907;28;20026;-78
2022/04/01 03:17:00;;;;;;;16.60;7.38;;;358.80;2329.60;;;;;;5012661;28;20042;-78
2022/04/01 03:19:29;;;;;;;21.00;7.07;;;358.80;2329.60;;;;;;5012607;28;20029;-77
2022/04/01 03:21:55;;;;;;;23.15;6.45;;;358.90;2329.60;;;;;;5012249;28;20426;-78
2022/04/01 03:24:21;;;;;;;19.02;7.03;;;358.90;2329.60;;;;;;5013736;28;20161;-78
2022/04/01 03:26:46;;;;;;;15.80;6.60;;;358.90;2329.60;;;;;;5013920;28;20126;-78
2022/04/01 03:29:12;;;;;;;18.45;6.68;;;358.90;2329.60;;;;;;5012170;28;20049;-78
2022/04/01 03:31:40;;;;;;;18.65;6.47;;;358.90;2329.60;;;;;;5012490;28;20458;-78
2022/04/01 03:34:06;;;;;;;20.30;6.57;;;358.80;2329.60;;;;;;5012106;28;20026;-78
2022/04/01 03:36:36;;;;;;;17.55;6.65;;;358.90;2329.60;;;;;;5013481;28;20410;-77
2022/04/01 03:39:03;;;;;;;14.93;6.45;;;358.90;2329.60;;;;;;5012331;28;20030;-78
2022/04/01 03:41:30;;;;;;;19.42;6.65;;;358.90;2329.60;;;;;;5013644;28;20026;-79
2022/04/01 03:43:56;;;;;;;15.02;6.65;;;358.80;2329.60;;;;;;5012074;28;20101;-78
2022/04/01 03:46:26;;;;;;;23.08;6.53;;;358.80;2329.60;;;;;;5013726;28;20061;-79
2022/04/01 03:49:02;;;;;;;15.88;6.35;;;358.80;2329.60;;;;;;5012521;28;20022;-78
2022/04/01 03:51:30;;;;;;;22.55;6.85;;;358.80;2329.60;;;;;;5012459;28;20061;-78
2022/04/01 03:53:58;;;;;;;21.25;6.45;;;358.70;2329.60;;;;;;5013418;28;20049;-79
2022/04/01 03:56:30;;;;;;;16.98;5.85;;;358.70;2329.60;;;;;;5013493;28;20437;-78
2022/04/01 03:59:02;;;;;;;16.25;6.80;;;358.60;2329.60;;;;;;5012211;28;20026;-78
2022/04/01 04:01:28;;;;;;;16.33;6.63;;;358.60;2329.60;;;;;;5012296;28;20080;-77
2022/04/01 04:03:56;;;;;;;15.02;5.38;;;358.60;2329.60;;;;;;5012493;28;20030;-78
2022/04/01 04:06:23;;;;;;;11.07;4.95;;;358.50;2329.60;;;;;;5013258;28;20455;-77
2022/04/01 04:08:50;;;;;;;20.05;5.65;;;358.50;2329.60;;;;;;5012299;28;20026;-78
2022/04/01 04:11:18;;;;;;;18.95;6.32;;;358.50;2329.60;;;;;;5012148;28;20037;-78
2022/04/01 04:13:45;;;;;;;23.08;6.53;;;358.50;2329.60;;;;;;5012073;28;20029;-78
2022/04/01 04:16:19;;;;;;;19.75;5.82;;;358.50;2329.60;;;;;;5015682;28;20030;-77
2022/04/01 04:19:07;;;;;;;16.48;5.20;;;358.50;2329.60;;;;;;5017244;28;20052;-78
2022/04/01 04:22:10;;;;;;;18.80;6.43;;;358.40;2329.60;;;;;;5015567;28;20088;-78
2022/04/01 04:24:48;;;;;;;24.95;7.28;;;358.40;2329.60;;;;;;5016921;28;20026;-78
2022/04/01 04:27:17;;;;;;;17.88;6.60;;;358.40;2329.60;;;;;;5015675;28;20477;-78
2022/04/01 04:29:51;;;;;;;15.77;6.20;;;333.70;2329.60;;;;;;5015557;28;20076;-77
2022/04/01 04:32:39;;;;;;;18.80;7.20;;;333.70;2329.60;;;;;;5015003;28;20103;-78
2022/04/01 04:35:08;;;;;;;18.52;7.35;;;333.70;2329.60;;;;;;5015502;28;20100;-78
2022/04/01 04:37:36;;;;;;;16.00;5.60;;;333.70;2329.60;;;;;;5015452;28;20038;-78
2022/04/01 04:40:04;;;;;;;17.45;7.60;;;333.70;2329.60;;;;;;5015475;28;20032;-78
2022/04/01 04:42:33;;;;;;;14.57;6.68;;;333.70;2329.60;;;;;;5015590;28;20041;-78
2022/04/01 04:44:59;;;;;;;18.95;7.75;;;358.40;2329.60;;;;;;5015282;28;20074;-77
2022/04/01 04:47:27;;;;;;;21.92;6.70;;;358.40;2329.60;;;;;;5015275;28;20034;-77
2022/04/01 04:49:56;;;;;;;22.73;7.30;;;358.40;2329.60;;;;;;5015455;28;20018;-78
2022/04/01 04:52:28;;;;;;;22.23;6.82;;;358.40;2329.60;;;;;;5016215;28;20048;-77
2022/04/01 04:54:55;;;;;;;21.73;6.95;;;358.50;2329.60;;;;;;5015148;28;20129;-80
2022/04/01 04:57:21;;;;;;;19.23;6.93;;;358.50;2329.60;;;;;;5015019;28;20037;-77
2022/04/01 04:59:48;;;;;;;19.42;7.00;;;358.50;2329.60;;;;;;5015142;28;20477;-78
2022/04/01 05:02:48;;;;;;;19.75;7.43;;;358.40;2329.60;;;;;;5014837;28;20478;-77
2022/04/01 05:05:38;;;;;;;20.35;6.85;;;358.50;2329.60;;;;;;5014872;28;20053;-78
2022/04/01 05:08:25;;;;;;;18.42;6.85;;;358.50;2329.60;;;;;;5014824;28;20038;-78
2022/04/01 05:11:09;;;;;;;;;;;358.50;2329.60;;;;;;5015321;28;20486;-78
2022/04/01 05:13:55;;;;;;;18.25;6.80;;;358.50;2329.60;;;;;;5015495;28;19928;-82
2022/04/01 05:16:37;;;;;;;14.23;6.55;;;358.50;2329.60;;;;;;5008690;28;20030;-78
2022/04/01 05:19:09;;;;;;;26.83;8.98;;;358.60;2329.60;;;;;;5004406;28;20026;-78
2022/04/01 05:22:01;;;;;;;29.52;7.82;;;358.50;2329.60;;;;;;5003792;28;20434;-79
2022/04/01 05:24:47;;;;;;;20.02;7.45;;;358.50;2329.60;;;;;;5006805;28;20378;-78
2022/04/01 05:27:38;;;;;;;23.90;6.80;;;358.50;2329.60;;;;;;5000985;28;20053;-77
2022/04/01 05:30:16;;;;;;;20.33;7.50;;;358.60;2329.60;;;;;;4994837;28;20023;-78
2022/04/01 05:32:59;;;;;;;14.55;6.25;;;358.60;2329.60;;;;;;4995000;28;20490;-79
2022/04/01 05:35:31;;;;;;;13.07;6.57;;;358.60;2329.60;;;;;;4994980;28;20467;-83
2022/04/01 05:37:59;;;;;;;22.52;6.63;;;358.60;2329.60;;;;;;4994901;28;20042;-78
2022/04/01 05:40:27;;;;;;;18.90;6.10;;;358.60;2329.60;;;;;;4996124;28;20022;-82
2022/04/01 05:42:55;;;;;;;15.60;5.80;;;358.70;2329.60;;;;;;4995980;28;20110;-78
2022/04/01 05:45:25;;;;;;;19.13;5.57;;;358.80;2329.60;;;;;;4994541;28;20049;-80
2022/04/01 05:47:52;;;;;;;14.75;5.95;;;358.80;2329.60;;;;;;4994894;28;20069;-78
2022/04/01 05:50:19;;;;;;;22.27;6.45;;;358.90;2329.60;;;;;;4994511;28;20030;-82
2022/04/01 05:52:50;;;;;;;12.43;5.68;;;359.00;2329.60;;;;;;4994538;28;20486;-77
2022/04/01 05:55:20;;;;;;;14.70;5.43;;;359.00;2329.60;;;;;;4994423;28;20499;-78
2022/04/01 05:57:46;;;;;;;20.75;5.80;;;359.00;2329.60;;;;;;4994531;28;20034;-79
2022/04/01 06:00:12;;;;;;;20.27;6.82;;;359.10;2329.60;;;;;;4995279;28;20564;-79
2022/04/01 06:03:00;;;;;;;20.23;6.90;;;359.20;2329.60;;;;;;4994493;28;20053;-82
2022/04/01 06:05:34;;;;;;;23.35;6.70;;;359.30;2329.60;;;;;;5000333;28;20022;-79
2022/04/01 06:08:23;;;;;;;21.88;7.03;;;359.30;2329.60;;;;;;5020199;28;20081;-77
2022/04/01 06:11:16;;;;;;;17.60;6.38;;;359.30;2329.60;;;;;;5012055;28;20414;-77
2022/04/01 06:14:10;;;;;;;15.55;6.28;;;359.30;2329.60;;;;;;5013405;28;20026;-77
2022/04/01 06:16:52;;;;;;;17.77;6.80;;;384.00;2329.60;;;;;;5013455;28;20033;-79
2022/04/01 06:19:40;;;;;;;17.40;6.50;;;384.00;2329.60;;;;;;5006425;28;20069;-78
2022/04/01 06:22:12;;;;;;;21.20;8.15;;;384.10;2329.60;;;;;;5007035;28;20073;-76
2022/04/01 06:25:12;;;;;;;15.93;6.68;;;384.20;2329.60;;;;;;5012646;28;20050;-76
2022/04/01 06:27:39;;;;;;;16.23;6.40;;;384.30;2329.60;;;;;;5005119;28;20045;-83
2022/04/01 06:30:11;;;;;;;16.63;7.28;;;384.30;2329.60;;;;;;5004619;28;20100;-79
2022/04/01 06:33:01;;;;;;;25.77;7.43;;;384.40;2329.60;;;;;;5001853;28;20386;-77
2022/04/01 06:35:50;;;;;;;20.52;6.82;;;384.40;2329.60;;;;;;5024749;28;20022;-77
2022/04/01 06:38:54;;;;;;;22.23;8.25;;;384.50;2329.60;;;;;;5013056;28;20134;-75
2022/04/01 06:41:25;;;;;;;25.48;7.82;;;384.60;2329.60;;;;;;4956404;28;20118;-76
2022/04/01 06:43:51;;;;;;;25.40;10.73;;;384.70;2329.60;;;;;;4972831;28;20041;-76
2022/04/01 06:46:16;;;;;;;24.20;9.85;;;384.70;2329.60;;;;;;4956357;28;20043;-77
2022/04/01 06:48:42;;;;;;;30.67;8.50;;;384.90;2329.60;;;;;;4957038;28;20043;-76
2022/04/01 06:51:08;;;;;;;20.90;7.47;;;384.90;2329.60;;;;;;4957183;28;20023;-76
2022/04/01 06:53:36;;;;;;;27.40;8.98;;;409.60;2355.20;;;;;;4937503;29;20150;-77
2022/04/01 06:56:03;;;;;;;22.65;7.63;;;409.80;2355.20;;;;;;4953863;28;20114;-78
2022/04/01 06:58:30;;;;;;;18.17;6.57;;;410.00;2355.20;;;;;;4937854;29;20037;-75
2022/04/01 07:00:56;;;;;;;18.98;6.63;;;410.30;2355.20;;;;;;4937617;29;20037;-77
2022/04/01 07:03:22;;;;;;;23.30;8.05;;;410.50;2355.20;;;;;;4953691;29;20035;-75
2022/04/01 07:05:49;;;;;;;23.08;8.00;;;410.50;2355.20;;;;;;4953545;28;20090;-76
2022/04/01 07:08:16;;;;;;;27.98;6.97;;;410.50;2355.20;;;;;;4937400;29;20027;-75
2022/04/01 07:10:42;;;;;;;24.25;8.02;;;410.50;2355.20;;;;;;4953817;28;20492;-76
2022/04/01 07:13:10;;;;;;;21.75;7.25;;;410.40;2355.20;;;;;;4953765;29;20118;-75
2022/04/01 07:15:35;;;;;;;24.95;7.47;;;410.40;2355.20;;;;;;4953520;29;20028;-76
2022/04/01 07:18:02;;;;;;;24.25;7.78;;;410.50;2355.20;;;;;;4973518;28;20050;-75
2022/04/01 07:20:29;;;;;;;25.38;7.57;;;435.50;2355.20;;;;;;4994137;28;20462;-76
2022/04/01 07:22:54;;;;;;;20.73;6.90;;;435.80;2355.20;;;;;;4992956;28;20049;-76
2022/04/01 07:25:21;;;;;;;24.67;7.18;;;435.80;2355.20;;;;;;4994032;28;20041;-81
2022/04/01 07:27:47;;;;;;;24.77;6.95;;;435.80;2355.20;;;;;;4994289;28;20034;-80
2022/04/01 07:30:13;;;;;;;29.25;8.60;;;435.70;2355.20;;;;;;4994077;28;20046;-76
2022/04/01 07:32:40;;;;;;;23.52;7.82;;;435.60;2355.20;;;;;;4994248;28;20026;-80
2022/04/01 07:35:11;;;;;;;32.22;8.18;;;435.50;2355.20;;;;;;4992617;28;20020;-76
2022/04/01 07:37:37;;;;;;;28.02;9.15;;;435.30;2355.20;;;;;;4992876;28;20508;-82
2022/04/01 07:40:05;;;;;;;31.90;9.32;;;435.30;2355.20;;;;;;4994136;28;20029;-76
2022/04/01 07:42:32;;;;;;;24.55;9.77;;;435.20;2355.20;;;;;;4994088;28;20018;-79
2022/04/01 07:44:58;;;;;;;29.98;8.27;;;410.50;2355.20;;;;;;4994087;28;20026;-77
2022/04/01 07:47:24;;;;;;;30.20;9.68;;;410.50;2355.20;;;;;;4994020;28;20089;-76
2022/04/01 07:49:51;;;;;;;34.80;8.27;;;410.50;2355.20;;;;;;4994298;28;20030;-77
2022/04/01 07:52:19;;;;;;;40.42;8.95;;;435.20;2355.20;;;;;;4996563;28;20065;-77
2022/04/01 07:54:46;;;;;;;26.05;8.00;;;435.50;2355.20;;;;;;4997692;28;20104;-80
2022/04/01 07:57:13;;;;;;;50.58;10.38;;;435.80;2355.20;;;;;;4998098;28;20034;-78
2022/04/01 07:59:40;;;;;;;32.53;9.70;;;436.00;2355.20;;;;;;4997919;28;20026;-76
2022/04/01 08:02:06;;;;;;;34.33;8.85;;;460.80;2380.80;;;;;;4997797;28;20536;-77
2022/04/01 08:04:33;;;;;;;30.13;9.43;;;461.00;2380.80;;;;;;4997692;28;20026;-76
2022/04/01 08:06:59;;;;;;;27.90;9.18;;;461.10;2380.80;;;;;;4997578;28;20100;-82
2022/04/01 08:09:25;;;;;;;30.02;8.48;;;461.30;2380.80;;;;;;4996259;28;20022;-76
2022/04/01 08:11:52;;;;;;;31.75;7.18;;;461.60;2380.80;;;;;;4996224;28;20030;-76
2022/04/01 08:14:18;;;;;;;28.33;8.80;;;461.60;2380.80;;;;;;4997342;28;20372;-80
2022/04/01 08:16:45;;;;;;;22.58;7.40;;;461.60;2380.80;;;;;;4997099;28;20027;-75
2022/04/01 08:19:11;;;;;;;27.75;7.88;;;461.60;2380.80;;;;;;4995950;28;20459;-76
2022/04/01 08:21:37;;;;;;;27.10;8.20;;;461.70;2380.80;;;;;;4995982;28;20026;-76
2022/04/01 08:24:03;;;;;;;26.98;6.80;;;486.40;2380.80;;;;;;4997365;28;20065;-77
2022/04/01 08:26:29;;;;;;;27.80;7.85;;;486.40;2380.80;;;;;;4997146;28;20057;-83
2022/04/01 08:28:56;;;;;;;32.30;7.85;;;486.40;2380.80;;;;;;4997673;28;20378;-78
2022/04/01 08:31:22;;;;;;;28.77;7.68;;;461.70;2380.80;;;;;;4997143;28;20101;-82
2022/04/01 08:33:50;;;;;;;33.58;8.63;;;486.40;2380.80;;;;;;4997237;28;20025;-82
2022/04/01 08:36:17;;;;;;;33.17;8.00;;;486.70;2380.80;;;;;;4997036;28;20092;-80
2022/04/01 08:38:43;;;;;;;45.83;9.57;;;486.70;2380.80;;;;;;4996023;28;20063;-76
2022/04/01 08:41:10;;;;;;;21.63;7.97;;;486.90;2380.80;;;;;;4997090;28;20086;-82
2022/04/01 08:43:42;;;;;;;25.45;7.38;;;486.80;2380.80;;;;;;4997213;28;20031;-76
2022/04/01 08:46:09;;;;;;;21.60;7.88;;;486.80;2380.80;;;;;;4995588;28;20085;-75
2022/04/01 08:48:36;;;;;;;37.53;8.45;;;486.90;2380.80;;;;;;4995577;28;20118;-77
2022/04/01 08:51:03;;;;;;;30.95;7.70;;;487.00;2380.80;;;;;;4996964;28;20459;-75
2022/04/01 08:53:33;;;;;;;32.00;8.88;;;487.10;2380.80;;;;;;4996552;28;20467;-81
2022/04/01 08:55:59;;;;;;;30.65;8.20;;;487.20;2380.80;;;;;;4996810;28;20049;-75
2022/04/01 08:58:25;;;;;;;45.13;10.10;;;487.20;2380.80;;;;;;4996644;28;20030;-76
2022/04/01 09:00:52;;;;;;;25.17;7.63;;;512.00;2380.80;;;;;;4994816;28;20033;-81
2022/04/01 09:03:21;;;;;;;29.77;8.10;;;487.30;2380.80;;;;;;4996563;28;20113;-80
2022/04/01 09:05:59;;;;;;;37.05;8.30;;;512.20;2380.80;;;;;;4996543;28;20029;-76
2022/04/01 09:08:27;;;;;;;30.70;8.70;;;512.40;2380.80;;;;;;4996420;28;20022;-76
2022/04/01 09:11:08;;;;;;;26.85;9.25;;;512.30;2380.80;;;;;;4996458;28;20030;-76
2022/04/01 09:13:49;;;;;;;28.00;8.35;;;512.00;2380.80;;;;;;4995270;28;20351;-76
2022/04/01 09:16:32;;;;;;;20.38;7.82;;;487.30;2380.80;;;;;;4994907;28;20038;-79
2022/04/01 09:19:00;;;;;;;33.47;7.95;;;487.10;2380.80;;;;;;4996317;28;20018;-77
2022/04/01 09:21:31;;;;;;;36.35;10.38;;;487.00;2380.80;;;;;;4995241;28;20076;-79
2022/04/01 09:23:58;;;;;;;35.53;10.85;;;486.90;2380.80;;;;;;4995326;28;20042;-82
2022/04/01 09:26:34;;;;;;;35.70;11.23;;;486.80;2380.80;;;;;;4995391;28;20034;-80
2022/04/01 09:29:01;;;;;;;30.40;8.73;;;486.80;2380.80;;;;;;4995486;28;20026;-81
2022/04/01 09:31:36;;;;;;;33.97;9.45;;;486.80;2380.80;;;;;;4995254;28;20034;-80
2022/04/01 09:34:06;;;;;;;22.40;7.40;;;486.80;2380.80;;;;;;4995400;28;20033;-83
2022/04/01 09:36:38;;;;;;;23.85;7.85;;;486.80;2380.80;;;;;;4995199;28;20033;-81
2022/04/01 09:39:06;;;;;;;27.65;7.47;;;486.70;2380.80;;;;;;4995534;28;20475;-82
2022/04/01 09:41:37;;;;;;;28.70;7.45;;;486.70;2380.80;;;;;;4995634;28;20041;-84
2022/04/01 09:44:04;;;;;;;32.53;8.10;;;486.60;2380.80;;;;;;4995221;28;20038;-81
2022/04/01 09:46:30;;;;;;;34.58;8.93;;;486.50;2380.80;;;;;;4995737;28;20022;-81
2022/04/01 09:48:58;;;;;;;24.02;7.35;;;486.50;2380.80;;;;;;4996197;28;20038;-80
2022/04/01 09:51:32;;;;;;;23.38;8.00;;;486.40;2380.80;;;;;;4994770;28;20053;-81
2022/04/01 09:54:02;;;;;;;31.08;6.85;;;461.60;2380.80;;;;;;4995360;28;20073;-79
2022/04/01 09:56:36;;;;;;;18.95;4.68;;;461.40;2380.80;;;;;;4995734;28;20038;-78
2022/04/01 09:59:04;;;;;;;15.15;5.68;;;460.90;2380.80;;;;;;4994218;28;20033;-77
2022/04/01 10:01:31;;;;;;;12.02;4.90;;;436.10;2355.20;;;;;;4995381;28;20054;-78
2022/04/01 10:03:57;;;;;;;17.67;6.88;;;435.80;2355.20;;;;;;4995548;28;20026;-77
2022/04/01 10:06:24;;;;;;;14.68;5.47;;;435.60;2355.20;;;;;;4995320;28;20489;-78
2022/04/01 10:08:51;;;;;;;17.42;5.30;;;435.60;2355.20;;;;;;4995296;28;20057;-77
2022/04/01 10:11:19;;;;;;;18.88;4.43;;;435.50;2355.20;;;;;;4993915;28;20026;-77
2022/04/01 10:13:46;;;;;;;14.52;5.60;;;435.30;2355.20;;;;;;4994336;28;20026;-78
2022/04/01 10:16:13;;;;;;;19.27;4.65;;;435.20;2355.20;;;;;;4994905;28;20049;-76
2022/04/01 10:18:46;;;;;;;15.80;5.22;;;410.50;2355.20;;;;;;4994087;28;20173;-78
2022/04/01 10:21:14;;;;;;;13.00;4.25;;;410.50;2355.20;;;;;;4993980;28;20033;-82
2022/04/01 10:23:48;;;;;;;15.43;5.13;;;410.40;2355.20;;;;;;4995125;28;20471;-78
2022/04/01 10:26:18;;;;;;;14.63;4.53;;;410.40;2355.20;;;;;;4993786;28;20085;-77
2022/04/01 10:28:45;;;;;;;10.10;4.05;;;410.40;2355.20;;;;;;4993726;28;20026;-78
2022/04/01 10:31:15;;;;;;;10.48;4.80;;;410.40;2355.20;;;;;;4993824;28;20105;-79
2022/04/01 10:33:41;;;;;;;18.45;5.40;;;410.40;2355.20;;;;;;4994640;28;20026;-79
2022/04/01 10:36:22;;;;;;;12.05;3.95;;;410.40;2355.20;;;;;;4993767;28;20093;-79
2022/04/01 10:38:49;;;;;;;9.70;3.85;;;410.40;2355.20;;;;;;4995141;28;20104;-79
2022/04/01 10:41:16;;;;;;;9.80;5.03;;;410.40;2355.20;;;;;;4993888;28;20050;-79
2022/04/01 10:43:50;;;;;;;11.05;4.70;;;410.50;2355.20;;;;;;4993521;28;20031;-80
2022/04/01 10:46:19;;;;;;;10.73;5.70;;;435.20;2355.20;;;;;;4993510;28;20026;-78
2022/04/01 10:52:10;;;;;;;12.63;5.15;;;435.90;2355.20;;;;;;4994892;28;20044;-78
2022/04/01 10:54:44;;;;;;;11.70;4.50;;;461.20;2380.80;;;;;;4993103;28;20166;-78
2022/04/01 10:57:37;;;;;;;9.88;4.88;;;461.60;2380.80;;;;;;4993376;28;20034;-77
2022/04/01 11:00:14;;;;;;;8.60;4.93;;;486.60;2380.80;;;;;;4993380;28;20022;-79
2022/04/01 11:02:41;;;;;;;8.30;4.90;;;486.80;2380.80;;;;;;4993598;28;20045;-79
2022/04/01 11:05:33;;;;;;;10.90;5.82;;;487.00;2380.80;;;;;;4993435;28;20051;-79
2022/04/01 11:08:21;;;;;;;15.68;5.00;;;487.10;2380.80;;;;;;4994692;28;20023;-81
2022/04/01 11:11:07;;;;;;;9.63;4.85;;;512.00;2380.80;;;;;;4993276;28;20113;-78
2022/04/01 11:13:33;;;;;;;6.88;4.28;;;512.30;2380.80;;;;;;4993144;28;20037;-78
2022/04/01 11:16:20;;;;;;;11.20;5.05;;;512.30;2380.80;;;;;;4993134;28;20034;-80
2022/04/01 11:19:25;;;;;;;11.65;4.78;;;512.10;2329.60;;;;;;4994446;28;20495;-79
2022/04/01 11:21:51;;;;;;;8.23;5.85;;;512.10;2329.60;;;;;;4990794;28;20100;-79
2022/04/01 11:24:29;;;;;;;6.53;4.65;;;512.20;2278.40;;;;;;4993032;28;20418;-80
2022/04/01 11:27:01;;;;;;;9.65;5.10;;;487.20;2329.60;;;;;;4993225;28;20023;-80
2022/04/01 11:29:27;;;;;;;11.35;5.47;;;487.10;2355.20;;;;;;4994324;28;20073;-79
2022/04/01 11:32:05;;;;;;;9.82;5.28;;;487.20;2329.60;;;;;;4993011;28;20026;-80
2022/04/01 11:34:31;;;;;;;12.50;4.45;;;487.30;2355.20;;;;;;4993140;28;20031;-79
2022/04/01 11:37:01;;;;;;;7.00;4.68;;;487.10;2329.60;;;;;;4992785;28;20477;-79
2022/04/01 11:39:27;;;;;;;7.88;5.35;;;487.00;2380.80;;;;;;4993122;28;20045;-78
2022/04/01 11:41:54;;;;;;;10.82;5.22;;;487.00;2380.80;;;;;;4992998;28;20121;-78
2022/04/01 11:44:21;;;;;;;10.93;5.47;;;487.10;2380.80;;;;;;4994292;28;20467;-78
2022/04/01 11:46:55;;;;;;;9.52;4.82;;;487.10;2329.60;;;;;;4992673;28;20041;-78
2022/04/01 11:49:26;;;;;;;7.28;4.38;;;487.20;2278.40;;;;;;4994124;28;20026;-79
2022/04/01 11:51:52;;;;;;;8.07;4.20;;;487.30;2252.80;;;;;;4993947;28;20126;-80
2022/04/01 11:54:20;;;;;;;8.27;5.07;;;512.00;2227.20;;;;;;4994010;28;20081;-78
2022/04/01 11:56:51;;;;;;;6.15;3.70;;;512.30;2176.00;;;;;;4992828;28;20406;-81
2022/04/01 11:59:16;;;;;;;6.47;4.28;;;512.50;2150.40;;;;;;4996567;28;20026;-78
2022/04/01 12:01:54;;;;;;;4.55;3.35;;;512.70;2048.00;;;;;;5001801;28;20026;-79
2022/04/01 12:04:33;;;;;;;6.25;3.33;;;512.70;2073.60;;;;;;5004283;28;20025;-78
2022/04/01 12:10:04;;;;;;;6.28;1.95;;;512.50;1945.60;;;;;;5013786;28;20079;-80
2022/04/01 12:12:31;;;;;;;4.00;2.30;;;512.30;1792.00;;;;;;5013603;28;20029;-80
2022/04/01 12:14:57;;;;;;;3.65;1.85;;;512.00;1766.40;;;;;;5028920;28;20026;-79
2022/04/01 12:17:24;;;;;;;5.43;1.95;;;512.00;1792.00;;;;;;5028589;28;20049;-80
2022/04/01 12:20:06;;;;;;;3.22;1.92;;;512.00;1766.40;;;;;;5012194;28;20022;-78
2022/04/01 12:22:35;;;;;;;3.50;2.10;;;512.00;1843.20;;;;;;5023149;28;20041;-79
2022/04/01 12:25:00;;;;;;;3.45;1.55;;;487.30;1817.60;;;;;;5004026;28;20017;-79
2022/04/01 12:27:26;;;;;;;3.50;1.70;;;512.00;1843.20;;;;;;5006853;28;20049;-79
2022/04/01 12:29:52;;;;;;;2.45;1.10;;;512.10;1792.00;;;;;;5011450;28;20116;-80
2022/04/01 12:32:18;;;;;;;1.88;1.23;;;512.00;1766.40;;;;;;5011423;28;20129;-78
2022/04/01 12:34:47;;;;;;;1.92;1.65;;;512.00;1792.00;;;;;;5012365;28;20030;-78